Sundown, Texas
Current Conditions -  °F | °C
As of 5:53 PM on Monday 24 Nov 2014 (Local Time) from KLBB Reporting Station
Broken Clouds Broken Clouds  
Wind Chill: 44°   Ceiling: 30000
Heat Index: 46°   Visibility: 10mi
Dew Point: 13°   Wind: 5mph
Humidity: 26%   Direction: 20°NNE
Pressure: 30.04"   Gusts: NA
Location:  33.46°N, 102.49°W
Report Text: KLBB 242353Z 02004KT 10SM FEW190 SCT240 BKN300 08/M11 A3004 RMK AO2 SLP175 T00781106 10128 20078 53014
Loading
Personal Weather Stations






























Interactive Weather Map New forecast layout! Learn more

10-Day Weather Forecast

Advertisements
Track Severe Weather on mobile